Time;durP1;ratioP1;P1;durP2;ratioP2;P2;SDS_P1;SDS_P2;PMS_P1;PMS_P2;Temp;Humidity;BMP_temperature;BMP_pressure;BME280_temperature;BME280_humidity;BME280_pressure;Samples;Min_cycle;Max_cycle;Signal;HPM_P1;HPM_P2
2023/11/22 00:02:20;;;;;;;8.27;6.10;;;9.30;68.70;11.20;102564.00;;;;4990123;28;20685;-76
2023/11/22 00:04:47;;;;;;;8.07;6.53;;;9.30;68.70;11.10;102568.00;;;;4975403;28;20244;-76
2023/11/22 00:07:28;;;;;;;8.55;6.88;;;9.30;68.80;11.10;102556.00;;;;4992107;28;20231;-77
2023/11/22 00:09:57;;;;;;;11.30;6.15;;;9.30;68.80;11.10;102566.00;;;;4983998;28;20561;-76
2023/11/22 00:12:26;;;;;;;8.75;6.38;;;9.30;68.80;11.10;102556.00;;;;4978860;28;20198;-76
2023/11/22 00:14:53;;;;;;;8.05;5.95;;;9.30;68.80;11.20;102560.00;;;;4980774;28;20198;-76
2023/11/22 00:17:21;;;;;;;8.20;6.47;;;9.30;68.80;11.10;102562.00;;;;4971348;28;20198;-76
2023/11/22 00:19:48;;;;;;;8.70;5.80;;;9.30;68.80;11.10;102566.00;;;;4969342;28;20207;-76
2023/11/22 00:22:16;;;;;;;7.97;5.90;;;9.30;68.90;11.20;102581.00;;;;4968957;28;20729;-77
2023/11/22 00:24:45;;;;;;;7.28;6.40;;;9.30;68.90;11.20;102585.00;;;;4973647;28;20244;-77
2023/11/22 00:27:15;;;;;;;9.35;7.07;;;9.30;68.90;11.20;102582.00;;;;4986673;28;20703;-77
2023/11/22 00:29:42;;;;;;;7.07;6.13;;;9.30;68.90;11.20;102578.00;;;;4982904;28;20667;-76
2023/11/22 00:32:09;;;;;;;6.70;5.68;;;9.30;68.90;11.20;102584.00;;;;4970315;28;20205;-77
2023/11/22 00:34:36;;;;;;;8.30;6.07;;;9.30;69.00;11.20;102587.00;;;;4976221;28;20201;-77
2023/11/22 00:37:03;;;;;;;7.82;5.95;;;9.30;69.00;11.20;102589.00;;;;4986621;28;20217;-77
2023/11/22 00:39:30;;;;;;;9.48;6.65;;;9.40;69.10;11.20;102587.00;;;;4983536;28;20190;-76
2023/11/22 00:41:57;;;;;;;9.95;6.68;;;9.40;69.10;11.20;102583.00;;;;4967193;28;20205;-77
2023/11/22 00:44:25;;;;;;;9.32;6.22;;;9.40;69.10;11.20;102584.00;;;;4970413;28;20202;-76
2023/11/22 00:46:52;;;;;;;8.38;6.25;;;9.40;69.00;11.30;102583.00;;;;4970702;28;20233;-76
2023/11/22 00:49:20;;;;;;;7.70;6.20;;;9.40;69.00;11.30;102572.00;;;;4971602;28;20206;-77
2023/11/22 00:51:47;;;;;;;8.48;6.47;;;9.40;69.00;11.30;102579.00;;;;4970979;28;20198;-77
2023/11/22 00:54:15;;;;;;;7.18;5.80;;;9.40;68.90;11.30;102580.00;;;;4971483;28;20288;-77
2023/11/22 00:56:42;;;;;;;8.68;6.65;;;9.40;68.90;11.30;102578.00;;;;4973103;28;20229;-77
2023/11/22 00:59:09;;;;;;;8.88;6.20;;;9.40;68.90;11.30;102587.00;;;;4990757;28;20285;-77
2023/11/22 01:01:37;;;;;;;8.50;6.47;;;9.40;68.90;11.20;102585.00;;;;4982532;28;20656;-77
2023/11/22 01:04:06;;;;;;;8.43;6.57;;;9.40;68.90;11.20;102596.00;;;;4978166;28;20199;-77
2023/11/22 01:06:34;;;;;;;8.43;6.40;;;9.40;68.90;11.20;102599.00;;;;4979851;28;20225;-77
2023/11/22 01:09:01;;;;;;;9.48;6.70;;;9.40;68.90;11.20;102611.00;;;;4980771;28;20278;-77
2023/11/22 01:11:29;;;;;;;8.45;6.50;;;9.40;68.90;11.20;102606.00;;;;4980085;28;20949;-76
2023/11/22 01:13:56;;;;;;;8.77;6.45;;;9.40;68.90;11.20;102616.00;;;;4975092;28;20218;-76
2023/11/22 01:16:23;;;;;;;8.82;6.63;;;9.40;68.80;11.20;102624.00;;;;4984297;28;20210;-76
2023/11/22 01:18:52;;;;;;;10.00;6.85;;;9.40;68.80;11.20;102646.00;;;;4988679;28;20193;-76
2023/11/22 01:21:20;;;;;;;15.68;7.38;;;9.40;68.80;11.20;102642.00;;;;4978182;28;20202;-77
2023/11/22 01:23:47;;;;;;;8.38;5.95;;;9.40;69.40;11.20;102648.00;;;;4964203;28;20254;-77
2023/11/22 01:26:14;;;;;;;9.18;6.80;;;9.40;68.80;11.10;102651.00;;;;4965327;28;20233;-76
2023/11/22 01:28:44;;;;;;;8.98;6.88;;;9.30;68.70;11.10;102651.00;;;;4974743;28;20193;-76
2023/11/22 01:31:13;;;;;;;9.45;6.85;;;9.30;68.80;11.10;102644.00;;;;4969776;28;20199;-76
2023/11/22 01:33:40;;;;;;;8.68;5.95;;;9.30;68.80;11.10;102648.00;;;;4975697;28;20256;-76
2023/11/22 01:36:09;;;;;;;9.18;7.18;;;9.30;68.70;11.10;102658.00;;;;4976924;28;20214;-76
2023/11/22 01:38:39;;;;;;;8.85;6.88;;;9.30;68.80;11.10;102656.00;;;;4968493;28;20209;-76
2023/11/22 01:41:06;;;;;;;7.68;5.95;;;9.30;68.70;11.10;102656.00;;;;4960427;28;20206;-77
2023/11/22 01:43:33;;;;;;;8.48;6.22;;;9.30;68.70;11.10;102653.00;;;;4973487;28;20198;-77
2023/11/22 01:46:01;;;;;;;8.57;6.47;;;9.30;68.80;11.00;102656.00;;;;4973928;28;20217;-76
2023/11/22 01:48:28;;;;;;;8.80;6.85;;;9.20;68.70;11.00;102654.00;;;;4985474;28;20205;-76
2023/11/22 01:50:55;;;;;;;10.52;6.82;;;9.20;68.70;11.00;102664.00;;;;4972196;28;20559;-76
2023/11/22 01:53:25;;;;;;;8.25;6.38;;;9.20;68.80;11.00;102653.00;;;;4979552;28;20206;-76
2023/11/22 01:55:52;;;;;;;11.55;7.47;;;9.20;68.80;11.00;102639.00;;;;4982645;28;20253;-76
2023/11/22 01:58:19;;;;;;;10.20;7.13;;;9.20;68.80;11.00;102638.00;;;;4972426;28;20612;-76
2023/11/22 02:00:51;;;;;;;8.65;6.40;;;9.20;68.70;10.90;102640.00;;;;4971855;28;20186;-76
2023/11/22 02:03:18;;;;;;;7.55;6.43;;;9.20;68.80;11.00;102641.00;;;;4976897;28;20205;-77
2023/11/22 02:05:46;;;;;;;9.68;6.65;;;9.10;68.60;10.90;102633.00;;;;4972338;28;20208;-76
2023/11/22 02:08:14;;;;;;;9.10;7.45;;;9.20;68.70;10.90;102643.00;;;;4968467;28;20575;-76
2023/11/22 02:10:44;;;;;;;10.50;7.35;;;9.10;68.70;10.90;102647.00;;;;4980797;28;20237;-76
2023/11/22 02:13:11;;;;;;;9.05;6.78;;;9.10;68.70;10.90;102649.00;;;;4984274;28;20307;-76
2023/11/22 02:15:38;;;;;;;9.20;7.15;;;9.10;68.80;10.90;102654.00;;;;4956057;28;20583;-77
2023/11/22 02:18:06;;;;;;;10.13;7.35;;;9.10;68.80;10.90;102656.00;;;;4968962;28;20198;-76
2023/11/22 02:20:33;;;;;;;12.07;7.00;;;9.10;68.70;10.90;102656.00;;;;4969339;28;20198;-76
2023/11/22 02:23:09;;;;;;;9.88;6.78;;;9.10;68.80;10.80;102658.00;;;;4969891;28;20198;-77
2023/11/22 02:25:36;;;;;;;9.48;7.03;;;9.00;68.80;10.80;102662.00;;;;4973869;28;20885;-77
2023/11/22 02:28:04;;;;;;;10.38;7.82;;;9.00;68.80;10.80;102657.00;;;;4973788;28;20225;-77
2023/11/22 02:30:31;;;;;;;10.25;7.28;;;9.00;68.80;10.80;102661.00;;;;4976603;28;20194;-76
2023/11/22 02:32:58;;;;;;;9.68;6.30;;;9.00;68.80;10.80;102660.00;;;;4972247;28;20202;-76
2023/11/22 02:35:26;;;;;;;11.13;7.25;;;9.00;68.80;10.80;102656.00;;;;4972880;28;20213;-76
2023/11/22 02:37:54;;;;;;;11.70;7.47;;;9.00;68.80;10.70;102650.00;;;;4971659;28;20227;-76
2023/11/22 02:40:24;;;;;;;10.52;7.45;;;9.00;68.80;10.70;102643.00;;;;4973779;28;20293;-76
2023/11/22 02:42:53;;;;;;;9.73;7.30;;;8.90;68.90;10.70;102650.00;;;;4973854;28;20198;-76
2023/11/22 02:45:28;;;;;;;10.45;7.28;;;8.90;68.90;10.60;102649.00;;;;4973837;28;20195;-77
2023/11/22 02:47:55;;;;;;;8.32;6.75;;;8.90;68.90;10.70;102644.00;;;;4973676;28;20217;-76
2023/11/22 02:50:22;;;;;;;10.13;7.13;;;8.90;69.00;10.70;102642.00;;;;4990413;28;20655;-77
2023/11/22 02:52:49;;;;;;;9.38;7.53;;;8.90;68.90;10.70;102644.00;;;;4980245;28;20861;-76
2023/11/22 02:55:17;;;;;;;11.40;7.10;;;8.90;68.90;10.70;102634.00;;;;4987353;28;20204;-77
2023/11/22 02:57:45;;;;;;;10.80;7.63;;;8.90;68.80;10.70;102632.00;;;;4991902;28;20269;-76
2023/11/22 03:00:14;;;;;;;8.00;5.95;;;8.90;68.80;10.60;102629.00;;;;4983486;28;20199;-77
2023/11/22 03:02:42;;;;;;;8.32;6.53;;;8.90;68.80;10.60;102633.00;;;;4975948;28;20611;-76
2023/11/22 03:05:10;;;;;;;8.27;6.40;;;8.80;68.60;10.60;102638.00;;;;4979419;28;20608;-76
2023/11/22 03:07:37;;;;;;;12.20;6.13;;;8.80;68.40;10.60;102640.00;;;;4968690;28;20312;-76
2023/11/22 03:10:07;;;;;;;8.82;6.30;;;8.80;68.10;10.50;102624.00;;;;4977449;28;20224;-77
2023/11/22 03:12:34;;;;;;;7.35;5.20;;;8.70;67.90;10.50;102638.00;;;;4971220;28;20198;-76
2023/11/22 03:15:03;;;;;;;8.18;6.05;;;8.70;67.80;10.40;102640.00;;;;4980663;28;20194;-77
2023/11/22 03:17:30;;;;;;;7.30;5.30;;;8.60;67.60;10.40;102652.00;;;;4980188;28;20213;-77
2023/11/22 03:19:58;;;;;;;7.43;6.03;;;8.60;67.60;10.40;102661.00;;;;4983710;28;20202;-77
2023/11/22 03:22:25;;;;;;;9.13;5.88;;;8.50;67.60;10.30;102666.00;;;;4982608;28;20217;-77
2023/11/22 03:24:53;;;;;;;11.65;6.90;;;8.50;67.60;10.30;102670.00;;;;4981309;28;20217;-76
2023/11/22 03:27:21;;;;;;;8.73;6.05;;;8.40;67.60;10.20;102675.00;;;;4972592;28;20269;-77
2023/11/22 03:29:48;;;;;;;8.38;6.13;;;8.40;67.60;10.20;102669.00;;;;4972241;28;20210;-77
2023/11/22 03:32:17;;;;;;;8.00;5.95;;;8.30;67.60;10.20;102683.00;;;;4974689;28;20574;-76
2023/11/22 03:34:45;;;;;;;7.72;5.65;;;8.30;67.80;10.10;102685.00;;;;4988354;28;21030;-76
2023/11/22 03:37:12;;;;;;;9.20;6.22;;;8.20;67.70;10.10;102691.00;;;;4984031;28;20713;-76
2023/11/22 03:39:39;;;;;;;8.80;6.00;;;8.20;67.90;10.10;102693.00;;;;4970707;28;20206;-77
2023/11/22 03:42:07;;;;;;;6.95;5.75;;;8.20;67.90;10.10;102707.00;;;;4981916;28;20939;-76
2023/11/22 03:44:34;;;;;;;8.23;5.93;;;8.10;68.00;10.10;102709.00;;;;4972780;28;20203;-77
2023/11/22 03:47:01;;;;;;;10.75;6.75;;;8.10;68.10;10.00;102712.00;;;;4971383;28;20229;-76
2023/11/22 03:49:29;;;;;;;8.10;6.05;;;8.10;68.10;10.00;102719.00;;;;4979307;28;20205;-76
2023/11/22 03:51:56;;;;;;;9.02;7.13;;;8.10;68.10;10.00;102724.00;;;;4976911;28;20205;-76
2023/11/22 03:54:23;;;;;;;7.78;5.82;;;8.10;68.10;10.00;102729.00;;;;4982555;28;20209;-76
2023/11/22 03:56:50;;;;;;;8.77;6.50;;;8.00;68.20;9.90;102734.00;;;;4972256;28;20226;-76
2023/11/22 03:59:18;;;;;;;9.93;6.72;;;8.00;68.20;9.90;102734.00;;;;4970854;28;20214;-76
2023/11/22 04:01:45;;;;;;;10.85;5.65;;;8.00;68.20;9.90;102734.00;;;;4974095;28;20285;-76
2023/11/22 04:04:12;;;;;;;7.95;6.10;;;8.00;68.20;9.90;102741.00;;;;4986273;28;20211;-76
2023/11/22 04:06:40;;;;;;;8.68;6.38;;;8.00;68.20;9.90;102739.00;;;;4988175;28;20210;-76
2023/11/22 04:09:08;;;;;;;8.23;6.15;;;8.00;68.20;9.90;102742.00;;;;4961725;28;20197;-76
2023/11/22 04:11:35;;;;;;;9.95;6.40;;;8.00;68.30;9.90;102751.00;;;;4981697;28;20195;-76
2023/11/22 04:14:02;;;;;;;9.23;6.65;;;7.90;68.20;9.90;102753.00;;;;4972894;28;20232;-76
2023/11/22 04:16:29;;;;;;;9.52;5.85;;;7.90;68.80;9.90;102755.00;;;;4983776;28;20202;-76
2023/11/22 04:18:57;;;;;;;10.80;7.15;;;7.90;68.10;9.90;102751.00;;;;4975879;28;20197;-76
2023/11/22 04:21:24;;;;;;;10.05;5.88;;;7.90;68.10;9.90;102749.00;;;;4990992;28;20205;-76
2023/11/22 04:23:52;;;;;;;10.18;6.72;;;7.90;68.10;9.90;102754.00;;;;4975724;28;20202;-77
2023/11/22 04:26:20;;;;;;;6.70;5.00;;;7.90;68.90;9.90;102764.00;;;;4971710;28;20679;-76
2023/11/22 04:28:47;;;;;;;7.68;6.13;;;7.90;68.20;9.90;102765.00;;;;4981228;28;20726;-77
2023/11/22 04:31:15;;;;;;;7.28;5.72;;;7.90;68.30;9.90;102768.00;;;;4978762;28;20675;-77
2023/11/22 04:33:42;;;;;;;8.40;6.43;;;7.90;68.30;9.90;102770.00;;;;4975265;28;20202;-77
2023/11/22 04:36:09;;;;;;;7.55;5.75;;;7.80;68.20;9.90;102774.00;;;;4970220;28;20218;-76
2023/11/22 04:38:36;;;;;;;7.95;5.90;;;7.90;68.30;9.80;102773.00;;;;4974573;28;20209;-76
2023/11/22 04:41:04;;;;;;;6.97;5.80;;;7.90;68.30;9.80;102773.00;;;;4982725;28;20209;-76
2023/11/22 04:43:31;;;;;;;9.93;5.75;;;7.90;68.30;9.90;102790.00;;;;4979111;28;20207;-77
2023/11/22 04:45:58;;;;;;;8.48;6.22;;;7.90;68.60;9.90;102786.00;;;;4970253;28;20201;-77
2023/11/22 04:48:25;;;;;;;7.53;6.00;;;7.80;68.30;9.90;102766.00;;;;4960983;28;20242;-78
2023/11/22 04:50:52;;;;;;;8.75;6.38;;;7.80;68.30;9.90;102779.00;;;;4969658;28;20198;-76
2023/11/22 04:53:20;;;;;;;7.28;5.57;;;7.90;68.30;9.80;102775.00;;;;4969291;28;20317;-77
2023/11/22 04:55:48;;;;;;;7.75;5.93;;;7.80;68.20;9.90;102772.00;;;;4969770;28;20198;-76
2023/11/22 04:58:17;;;;;;;7.93;5.75;;;7.80;68.20;9.80;102770.00;;;;4987597;28;20288;-76
2023/11/22 05:00:45;;;;;;;7.88;6.03;;;7.80;68.20;9.80;102767.00;;;;4976607;28;20199;-77
2023/11/22 05:03:12;;;;;;;6.68;4.82;;;7.80;68.20;9.80;102769.00;;;;4968507;28;20720;-77
2023/11/22 05:05:39;;;;;;;8.10;6.07;;;7.80;68.20;9.80;102758.00;;;;4961474;28;20283;-77
2023/11/22 05:08:06;;;;;;;8.32;6.05;;;7.80;68.20;9.80;102750.00;;;;4970075;28;20229;-77
2023/11/22 05:10:33;;;;;;;6.88;5.60;;;7.80;68.30;9.80;102756.00;;;;4983830;28;20217;-77
2023/11/22 05:13:00;;;;;;;6.30;5.30;;;7.90;68.30;9.80;102748.00;;;;4971544;28;20201;-76
2023/11/22 05:15:29;;;;;;;8.50;6.25;;;7.80;68.20;9.80;102750.00;;;;4970904;28;20668;-77
2023/11/22 05:17:56;;;;;;;7.72;5.85;;;7.80;68.20;9.80;102754.00;;;;4970724;28;20202;-76
2023/11/22 05:20:23;;;;;;;8.43;6.25;;;7.80;68.30;9.80;102761.00;;;;4986513;28;20574;-77
2023/11/22 05:22:50;;;;;;;8.88;6.55;;;7.80;68.30;9.80;102766.00;;;;4973130;28;20201;-76
2023/11/22 05:25:17;;;;;;;8.48;6.10;;;7.80;68.30;9.80;102749.00;;;;4969650;28;20572;-76
2023/11/22 05:27:44;;;;;;;9.13;6.70;;;7.80;68.40;9.80;102752.00;;;;4976013;28;20268;-77
2023/11/22 05:30:12;;;;;;;11.05;7.45;;;7.90;68.30;9.80;102753.00;;;;4986023;28;20194;-76
2023/11/22 05:32:41;;;;;;;8.98;6.18;;;7.90;68.40;9.80;102759.00;;;;4967161;28;20202;-76
2023/11/22 05:35:09;;;;;;;8.30;6.25;;;7.90;68.60;9.90;102758.00;;;;4968871;28;20198;-76
2023/11/22 05:37:37;;;;;;;8.02;6.50;;;7.90;68.60;9.90;102754.00;;;;4968923;28;20218;-77
2023/11/22 05:40:06;;;;;;;8.60;6.50;;;7.90;68.60;9.90;102749.00;;;;4972439;28;20197;-76
2023/11/22 05:42:35;;;;;;;8.25;5.70;;;7.90;68.70;9.90;102746.00;;;;4971218;28;20257;-76
2023/11/22 05:45:03;;;;;;;7.97;5.95;;;7.90;68.70;9.90;102770.00;;;;4971773;28;20225;-77
2023/11/22 05:47:31;;;;;;;7.78;6.00;;;8.00;68.80;9.90;102759.00;;;;4970963;28;20224;-77
2023/11/22 05:49:59;;;;;;;8.38;5.95;;;8.00;68.80;9.90;102775.00;;;;4969145;28;20198;-77
2023/11/22 05:52:26;;;;;;;11.50;6.75;;;8.00;68.80;10.00;102772.00;;;;4969579;28;20202;-77
2023/11/22 05:54:53;;;;;;;7.88;6.07;;;8.00;68.80;10.00;102784.00;;;;4968789;28;20194;-76
2023/11/22 05:57:20;;;;;;;11.65;6.88;;;8.00;68.80;10.00;102791.00;;;;4967319;28;20230;-77
2023/11/22 05:59:47;;;;;;;8.82;5.80;;;8.00;68.80;10.00;102784.00;;;;4975641;28;20241;-77
2023/11/22 06:02:14;;;;;;;8.75;6.00;;;8.10;68.90;10.10;102782.00;;;;4983305;28;20208;-77
2023/11/22 06:04:41;;;;;;;10.02;7.15;;;8.10;68.90;10.10;102781.00;;;;4975671;28;20211;-77
2023/11/22 06:07:10;;;;;;;9.65;6.90;;;8.10;68.80;10.10;102782.00;;;;4971324;28;20231;-76
2023/11/22 06:09:37;;;;;;;9.57;7.10;;;8.10;68.80;10.10;102781.00;;;;4972180;28;20225;-76
2023/11/22 06:12:05;;;;;;;10.63;7.20;;;8.10;68.80;10.10;102794.00;;;;4965938;28;20195;-76
2023/11/22 06:14:32;;;;;;;11.23;6.60;;;8.20;68.80;10.20;102794.00;;;;4966808;28;20225;-76
2023/11/22 06:16:59;;;;;;;8.93;6.70;;;8.20;68.80;10.20;102794.00;;;;4970189;28;20683;-76
2023/11/22 06:19:26;;;;;;;8.73;6.43;;;8.20;68.80;10.20;102788.00;;;;4963928;28;20210;-76
2023/11/22 06:21:53;;;;;;;8.48;6.43;;;8.20;68.70;10.20;102781.00;;;;4968987;28;20195;-76
2023/11/22 06:24:21;;;;;;;11.30;6.95;;;8.20;68.60;10.20;102779.00;;;;4967805;28;20194;-76
2023/11/22 06:26:49;;;;;;;9.35;6.80;;;8.20;68.50;10.20;102791.00;;;;4970239;28;20606;-76
2023/11/22 06:29:16;;;;;;;8.30;5.97;;;8.30;68.60;10.20;102797.00;;;;4967393;28;20868;-76
2023/11/22 06:31:43;;;;;;;9.23;7.05;;;8.30;68.40;10.20;102817.00;;;;4966947;28;20206;-76
2023/11/22 06:34:10;;;;;;;9.50;6.10;;;8.20;68.30;10.20;102819.00;;;;4967692;28;20590;-76
2023/11/22 06:36:37;;;;;;;8.63;6.65;;;8.20;68.30;10.20;102820.00;;;;4966431;28;20226;-76
2023/11/22 06:39:05;;;;;;;9.77;6.28;;;8.20;68.30;10.20;102814.00;;;;4967417;28;20296;-77
2023/11/22 06:41:34;;;;;;;9.57;6.47;;;8.20;68.30;10.20;102809.00;;;;4964807;28;20202;-77
2023/11/22 06:44:02;;;;;;;8.73;6.18;;;8.20;68.30;10.20;102795.00;;;;4966354;28;20545;-77
2023/11/22 06:46:29;;;;;;;8.73;6.47;;;8.20;68.30;10.20;102793.00;;;;4968726;28;20203;-77
2023/11/22 06:48:57;;;;;;;10.85;6.68;;;8.20;68.30;10.20;102786.00;;;;4968709;28;20568;-76
2023/11/22 06:51:24;;;;;;;11.75;7.82;;;8.20;68.30;10.20;102787.00;;;;4965365;28;20894;-78
2023/11/22 06:53:52;;;;;;;9.75;6.50;;;8.20;68.40;10.20;102781.00;;;;4969147;28;20601;-77
2023/11/22 06:56:19;;;;;;;10.90;6.72;;;8.20;68.40;10.20;102782.00;;;;4966510;28;20213;-77
2023/11/22 06:58:47;;;;;;;10.68;6.45;;;8.20;68.50;10.20;102787.00;;;;4949343;28;20569;-77
2023/11/22 07:01:15;;;;;;;8.48;6.35;;;8.20;68.50;10.20;102783.00;;;;4948654;28;20215;-77
2023/11/22 07:03:42;;;;;;;10.27;6.30;;;8.20;68.50;10.30;102784.00;;;;4948304;28;20203;-77
2023/11/22 07:06:09;;;;;;;9.93;7.47;;;8.20;68.50;10.20;102777.00;;;;4955684;28;20285;-78
2023/11/22 07:08:36;;;;;;;8.43;6.28;;;8.20;68.50;10.20;102776.00;;;;4949703;28;20226;-76
2023/11/22 07:11:05;;;;;;;9.40;6.80;;;8.20;68.50;10.20;102789.00;;;;4953759;28;20583;-77
2023/11/22 07:13:33;;;;;;;9.27;6.25;;;8.30;68.60;10.20;102790.00;;;;4950127;28;20199;-76
2023/11/22 07:16:01;;;;;;;12.05;7.32;;;8.20;68.50;10.20;102800.00;;;;4956061;28;20202;-76
2023/11/22 07:18:28;;;;;;;10.68;7.57;;;8.30;68.70;10.30;102812.00;;;;4952925;29;20214;-76
2023/11/22 07:20:56;;;;;;;10.25;7.30;;;8.30;68.70;10.30;102801.00;;;;4953323;28;20191;-76
2023/11/22 07:23:27;;;;;;;11.45;7.70;;;8.30;68.60;10.30;102804.00;;;;4964543;28;20198;-76
2023/11/22 07:25:54;;;;;;;9.30;6.95;;;8.30;68.60;10.30;102799.00;;;;4973019;28;20623;-76
2023/11/22 07:28:22;;;;;;;9.65;7.57;;;8.30;68.60;10.30;102801.00;;;;4973179;28;20276;-76
2023/11/22 07:30:49;;;;;;;10.60;7.15;;;8.30;68.50;10.30;102804.00;;;;4969206;28;20315;-76
2023/11/22 07:33:20;;;;;;;12.68;7.78;;;8.30;68.40;10.30;102798.00;;;;4953421;29;20203;-77
2023/11/22 07:35:47;;;;;;;12.45;8.57;;;8.40;68.50;10.30;102793.00;;;;4968622;28;20205;-77
2023/11/22 07:38:14;;;;;;;9.57;7.10;;;8.30;68.40;10.30;102803.00;;;;4955018;28;20225;-77
2023/11/22 07:40:41;;;;;;;11.45;7.82;;;8.30;68.30;10.30;102803.00;;;;4944778;28;21051;-76
2023/11/22 07:43:09;;;;;;;11.43;8.20;;;8.30;68.40;10.30;102811.00;;;;4947413;28;20580;-76
2023/11/22 07:45:37;;;;;;;8.57;6.90;;;8.30;68.40;10.30;102815.00;;;;4951768;28;20593;-76
2023/11/22 07:48:04;;;;;;;13.98;8.25;;;8.30;68.30;10.30;102811.00;;;;4943113;28;20233;-76
2023/11/22 07:50:33;;;;;;;12.38;7.53;;;8.30;68.40;10.30;102816.00;;;;4947347;28;20195;-77
2023/11/22 07:53:02;;;;;;;12.27;7.88;;;8.30;68.40;10.30;102820.00;;;;4955811;28;20199;-76
2023/11/22 07:55:30;;;;;;;11.90;8.15;;;8.30;68.40;10.30;102814.00;;;;4949836;28;20261;-76
2023/11/22 07:57:57;;;;;;;10.40;7.63;;;8.30;68.40;10.30;102809.00;;;;4962304;28;20695;-77
2023/11/22 08:00:25;;;;;;;12.27;8.90;;;8.30;68.40;10.30;102807.00;;;;4969504;28;20206;-77
2023/11/22 08:02:54;;;;;;;10.73;7.45;;;8.30;68.40;10.30;102821.00;;;;4974741;28;20249;-77
2023/11/22 08:05:23;;;;;;;11.10;8.27;;;8.30;68.40;10.30;102835.00;;;;4972440;28;20205;-77
2023/11/22 08:07:52;;;;;;;10.13;7.05;;;8.40;68.50;10.30;102836.00;;;;4971007;28;20202;-77
2023/11/22 08:10:19;;;;;;;9.60;7.32;;;8.30;68.40;10.40;102849.00;;;;4974929;28;20248;-77
2023/11/22 08:12:49;;;;;;;11.90;7.80;;;8.40;68.50;10.40;102859.00;;;;4967884;28;20234;-78
2023/11/22 08:15:18;;;;;;;14.20;8.02;;;8.30;68.40;10.40;102863.00;;;;4968885;28;20202;-77
2023/11/22 08:17:45;;;;;;;12.25;7.90;;;8.40;68.50;10.40;102866.00;;;;4970102;28;21004;-77
2023/11/22 08:20:13;;;;;;;13.02;9.00;;;8.40;68.50;10.40;102869.00;;;;4968645;28;20202;-78
2023/11/22 08:22:40;;;;;;;11.60;8.20;;;8.40;68.60;10.40;102861.00;;;;4967315;28;20720;-78
2023/11/22 08:25:12;;;;;;;11.68;8.65;;;8.40;68.60;10.40;102861.00;;;;4968741;28;20205;-78
2023/11/22 08:27:41;;;;;;;13.80;9.65;;;8.40;68.70;10.40;102862.00;;;;4966376;28;20193;-78
2023/11/22 08:30:13;;;;;;;15.77;9.50;;;8.40;68.70;10.40;102873.00;;;;4968518;28;20225;-78
2023/11/22 08:32:41;;;;;;;11.10;8.18;;;8.50;68.70;10.40;102873.00;;;;4960442;28;20201;-78
2023/11/22 08:35:10;;;;;;;12.90;9.18;;;8.50;68.70;10.50;102874.00;;;;4968361;28;20202;-78
2023/11/22 08:37:41;;;;;;;12.82;8.48;;;8.50;68.70;10.50;102872.00;;;;4969262;28;21108;-78
2023/11/22 08:40:14;;;;;;;13.30;9.05;;;8.50;68.70;10.50;102880.00;;;;4967611;28;20668;-78
2023/11/22 08:42:44;;;;;;;11.80;8.07;;;8.50;68.70;10.50;102878.00;;;;4968452;28;20296;-76
2023/11/22 08:45:12;;;;;;;13.50;7.70;;;8.60;68.90;10.60;102879.00;;;;4969370;28;20225;-77
2023/11/22 08:47:41;;;;;;;12.40;8.48;;;8.60;68.90;10.60;102861.00;;;;4970796;28;20201;-76
2023/11/22 08:50:10;;;;;;;10.25;7.28;;;8.60;68.90;10.70;102868.00;;;;4972212;28;20247;-77
2023/11/22 08:52:38;;;;;;;12.48;7.40;;;8.70;69.00;10.70;102858.00;;;;4974320;28;20212;-77
2023/11/22 08:55:08;;;;;;;10.60;7.65;;;8.70;69.00;10.70;102859.00;;;;4965655;28;20202;-77
2023/11/22 08:57:37;;;;;;;13.73;7.55;;;8.70;69.00;10.80;102869.00;;;;4970311;28;20226;-77
2023/11/22 09:00:09;;;;;;;11.55;7.30;;;8.80;69.10;10.80;102869.00;;;;4977685;28;20269;-76
2023/11/22 09:02:36;;;;;;;9.63;7.65;;;8.80;69.10;10.90;102879.00;;;;4966905;28;20242;-77
2023/11/22 09:05:06;;;;;;;11.63;7.65;;;8.80;69.10;10.90;102863.00;;;;4971284;28;20645;-77
2023/11/22 09:07:35;;;;;;;11.23;8.00;;;8.90;69.10;10.90;102869.00;;;;4973286;28;20289;-76
2023/11/22 09:10:09;;;;;;;10.77;7.53;;;8.90;68.90;11.00;102872.00;;;;4975684;28;20222;-77
2023/11/22 09:12:39;;;;;;;12.38;7.55;;;9.00;68.90;11.00;102867.00;;;;4966839;28;20198;-76
2023/11/22 09:15:09;;;;;;;11.70;8.13;;;9.00;68.80;11.10;102865.00;;;;4971898;28;20202;-76
2023/11/22 09:17:38;;;;;;;12.25;7.88;;;9.10;68.90;11.10;102871.00;;;;4971188;28;20205;-76
2023/11/22 09:20:11;;;;;;;11.07;7.50;;;9.10;69.00;11.20;102871.00;;;;4957311;28;20202;-76
2023/11/22 09:22:45;;;;;;;11.02;7.97;;;9.10;69.00;11.30;102867.00;;;;4966859;28;20249;-77
2023/11/22 09:25:12;;;;;;;9.50;7.18;;;9.20;69.10;11.30;102876.00;;;;4969545;28;20622;-76
2023/11/22 09:27:41;;;;;;;10.50;7.78;;;9.20;69.00;11.40;102878.00;;;;4968414;28;20277;-76
2023/11/22 09:30:17;;;;;;;11.52;8.18;;;9.30;69.00;11.50;102884.00;;;;4986105;28;20257;-77
2023/11/22 09:32:45;;;;;;;10.63;7.85;;;9.30;69.00;11.50;102888.00;;;;4973366;28;20193;-75
2023/11/22 09:35:13;;;;;;;13.68;9.13;;;9.40;69.10;11.60;102899.00;;;;4968965;28;20198;-75
2023/11/22 09:37:41;;;;;;;12.80;7.75;;;9.40;69.10;11.60;102883.00;;;;4970970;28;20307;-76
2023/11/22 09:40:12;;;;;;;12.30;8.07;;;9.50;69.20;11.70;102901.00;;;;4980497;28;20186;-75
2023/11/22 09:42:41;;;;;;;11.35;7.70;;;9.60;69.20;11.70;102888.00;;;;4986206;28;20726;-76
2023/11/22 09:45:09;;;;;;;13.45;8.18;;;9.60;69.20;11.80;102878.00;;;;4978541;28;20208;-76
2023/11/22 09:47:37;;;;;;;11.00;7.97;;;9.70;69.10;11.80;102874.00;;;;4982975;28;20237;-76
2023/11/22 09:50:10;;;;;;;10.50;7.57;;;9.70;68.90;11.90;102888.00;;;;4976097;28;20225;-76
2023/11/22 09:52:43;;;;;;;10.43;8.10;;;9.80;68.80;11.90;102885.00;;;;4969063;28;20206;-75
2023/11/22 09:55:11;;;;;;;10.20;7.68;;;9.80;68.70;11.90;102880.00;;;;4968575;28;20206;-76
2023/11/22 09:57:42;;;;;;;9.70;7.07;;;9.90;68.70;11.90;102887.00;;;;4968888;28;20935;-76
2023/11/22 10:00:13;;;;;;;9.85;7.75;;;9.90;68.60;12.00;102883.00;;;;4971992;28;20202;-76
2023/11/22 10:02:42;;;;;;;12.70;8.60;;;9.90;68.50;12.00;102889.00;;;;4987248;28;20221;-76
2023/11/22 10:05:09;;;;;;;11.65;8.52;;;10.00;68.50;12.00;102887.00;;;;4973858;28;20710;-75
2023/11/22 10:07:37;;;;;;;11.38;7.93;;;10.00;68.50;12.10;102886.00;;;;4968696;28;20202;-76
2023/11/22 10:10:10;;;;;;;10.90;8.10;;;10.00;68.50;12.10;102884.00;;;;4986036;28;20232;-75
2023/11/22 10:12:40;;;;;;;10.10;7.68;;;10.10;68.50;12.20;102867.00;;;;4968905;28;20190;-75
2023/11/22 10:15:18;;;;;;;11.88;8.93;;;10.10;68.50;12.10;102873.00;;;;4971814;28;20598;-75
2023/11/22 10:17:56;;;;;;;9.73;7.97;;;10.10;68.50;12.20;102871.00;;;;4988153;28;20237;-76
2023/11/22 10:20:25;;;;;;;11.40;6.93;;;10.20;68.50;12.20;102849.00;;;;4981242;28;20202;-76
2023/11/22 10:22:53;;;;;;;9.45;6.85;;;10.30;68.80;12.30;102859.00;;;;4950327;28;20677;-76
2023/11/22 10:25:22;;;;;;;10.52;7.75;;;10.30;68.40;12.30;102862.00;;;;4972381;28;20253;-75
2023/11/22 10:27:51;;;;;;;11.35;8.10;;;10.30;68.40;12.40;102869.00;;;;4967103;28;20576;-76
2023/11/22 10:30:20;;;;;;;11.48;7.93;;;10.40;68.40;12.40;102865.00;;;;4968707;28;20276;-76
2023/11/22 10:32:47;;;;;;;14.52;8.90;;;10.40;68.30;12.50;102859.00;;;;4969776;28;20206;-75
2023/11/22 10:35:15;;;;;;;11.13;8.43;;;10.40;68.40;12.50;102863.00;;;;4977339;28;20202;-76
2023/11/22 10:37:44;;;;;;;12.55;8.07;;;10.50;68.30;12.50;102860.00;;;;4984860;28;20717;-75
2023/11/22 10:40:15;;;;;;;9.95;7.47;;;10.50;68.10;12.60;102849.00;;;;4983256;28;20618;-76
2023/11/22 10:42:44;;;;;;;10.18;7.95;;;10.60;68.10;12.60;102842.00;;;;4986301;28;20193;-76
2023/11/22 10:45:11;;;;;;;10.57;7.57;;;10.60;67.90;12.60;102837.00;;;;4964427;28;20206;-75
2023/11/22 10:47:42;;;;;;;10.00;7.88;;;10.60;67.90;12.60;102832.00;;;;4957777;28;20186;-75
2023/11/22 10:50:12;;;;;;;11.25;8.35;;;10.70;67.90;12.60;102829.00;;;;4982365;28;20225;-75
2023/11/22 10:52:44;;;;;;;13.02;8.05;;;10.70;67.80;12.70;102826.00;;;;4985206;28;20260;-75
2023/11/22 10:55:17;;;;;;;12.85;8.73;;;10.70;68.50;12.70;102819.00;;;;4972998;28;20263;-75
2023/11/22 10:57:49;;;;;;;12.02;8.35;;;10.80;67.80;12.70;102828.00;;;;4970574;28;21104;-75